Friday, January 19, 2018, 7:33 AM GMT
Back to Local

CWST, La Pocatiere

Location: , , Canada Lat: 47.35
Local Time: 7:33 AM GMT ( 7:33 GMT) Lon: -70.033
Time Zone: GMT Elev: 101 ft

Show me the last for .
Show Coded

Time T Td Feel RH Dir Speed Gust Alt SLP Vis Weather Sky Remarks
2018-01-19 07:00 22 19 12 85 210° 9 - - 29.83 0 None
2018-01-19 06:00 22 19 13 87 260° 8 - - 29.83 0 None
2018-01-19 05:00 22 19 13 87 250° 7 - - 29.84 0 None
2018-01-19 04:00 23 19 12 85 210° 10 - - 29.84 0 None
2018-01-19 03:00 24 18 12 78 220° 13 - - 29.84 0 None
2018-01-19 02:00 24 18 12 78 220° 13 - - 29.82 0 None
2018-01-19 01:00 21 17 9 83 220° 14 - - 29.82 0 None
2018-01-19 00:00 21 17 8 83 220° 14 - - 29.82 0 Peak wind: 20 mph (18 kts) from 220° at 49 min
2018-01-18 23:00 22 17 10 81 220° 13 - - 29.82 0 Peak wind: 20 mph (18 kts) from 210° at 10 min
2018-01-18 22:00 23 18 11 80 210° 15 - - 29.80 0 Peak wind: 20 mph (18 kts) from 220° at 40 min
2018-01-18 21:00 23 18 8 78 220° 16 22 - 29.79 0 Peak wind: 25 mph (22 kts) from 220° at 19 min
2018-01-18 20:00 23 17 7 77 230° 20 25 - 29.78 0 Peak wind: 31 mph (27 kts) from 240° at 41 min
2018-01-18 19:00 26 18 9 70 220° 22 30 - 29.76 0 Peak wind: 29 mph (26 kts) from 210° at 50 min
2018-01-18 18:00 24 17 7 75 220° 20 26 - 29.76 0 Peak wind: 27 mph (24 kts) from 230° at 08 min
2018-01-18 17:00 23 17 6 77 220° 22 28 - 29.76 0 Peak wind: 32 mph (28 kts) from 220° at 18 min
2018-01-18 16:00 23 19 5 83 220° 22 30 - 29.78 0 Peak wind: 32 mph (28 kts) from 220° at 12 min
2018-01-18 15:00 22 16 4 78 220° 21 28 - 29.80 0 Peak wind: 32 mph (28 kts) from 220° at 18 min
2018-01-18 14:00 21 16 3 81 220° 22 29 - 29.79 0 Peak wind: 31 mph (27 kts) from 230° at 12 min
2018-01-18 13:00 20 16 1 82 220° 24 31 - 29.78 0 Peak wind: 32 mph (28 kts) from 220° at 12 min
2018-01-18 12:00 22 16 4 76 220° 25 31 - 29.79 0 Peak wind: 31 mph (27 kts) from 220° at 53 min
2018-01-18 11:00 20 16 3 81 220° 21 28 - 29.80 0 Peak wind: 27 mph (24 kts) from 210° at 56 min
2018-01-18 10:00 20 15 2 80 220° 21 28 - 29.81 0 Peak wind: 29 mph (26 kts) from 220° at 28 min
2018-01-18 09:00 20 15 3 79 210° 18 25 - 29.84 0 Peak wind: 29 mph (26 kts) from 210° at 29 min
2018-01-18 08:00 20 14 2 77 210° 21 28 - 29.86 0 Peak wind: 27 mph (24 kts) from 210° at 56 min

Support USWX by starting your Amazon purchase here.